sensor_id;sensor_type;location;lat;lon;timestamp;P1;durP1;ratioP1;P2;durP2;ratioP2
40807;SDS011;26523;52.504;13.498;2023-02-01T00:01:43;14.23;;;1.67;;
40807;SDS011;26523;52.504;13.498;2023-02-01T00:04:09;5.78;;;1.38;;
40807;SDS011;26523;52.504;13.498;2023-02-01T00:06:35;5.13;;;2.15;;
40807;SDS011;26523;52.504;13.498;2023-02-01T00:09:01;11.25;;;2.17;;
40807;SDS011;26523;52.504;13.498;2023-02-01T00:11:27;4.65;;;2.38;;
40807;SDS011;26523;52.504;13.498;2023-02-01T00:13:53;4.40;;;1.30;;
40807;SDS011;26523;52.504;13.498;2023-02-01T00:16:20;6.95;;;1.63;;
40807;SDS011;26523;52.504;13.498;2023-02-01T00:18:47;15.23;;;2.08;;
40807;SDS011;26523;52.504;13.498;2023-02-01T00:21:15;5.30;;;1.30;;
40807;SDS011;26523;52.504;13.498;2023-02-01T00:23:43;7.57;;;1.55;;
40807;SDS011;26523;52.504;13.498;2023-02-01T00:26:19;7.55;;;2.50;;
40807;SDS011;26523;52.504;13.498;2023-02-01T00:28:50;16.42;;;1.75;;
40807;SDS011;26523;52.504;13.498;2023-02-01T00:31:16;13.23;;;2.40;;
40807;SDS011;26523;52.504;13.498;2023-02-01T00:33:41;6.60;;;1.30;;
40807;SDS011;26523;52.504;13.498;2023-02-01T00:36:07;5.80;;;1.83;;
40807;SDS011;26523;52.504;13.498;2023-02-01T00:38:36;12.27;;;2.05;;
40807;SDS011;26523;52.504;13.498;2023-02-01T00:41:06;18.00;;;2.03;;
40807;SDS011;26523;52.504;13.498;2023-02-01T00:43:36;9.43;;;1.65;;
40807;SDS011;26523;52.504;13.498;2023-02-01T00:46:01;11.07;;;1.48;;
40807;SDS011;26523;52.504;13.498;2023-02-01T00:48:27;7.15;;;1.88;;
40807;SDS011;26523;52.504;13.498;2023-02-01T00:50:53;19.58;;;2.67;;
40807;SDS011;26523;52.504;13.498;2023-02-01T00:53:19;10.55;;;1.92;;
40807;SDS011;26523;52.504;13.498;2023-02-01T00:55:47;9.07;;;2.08;;
40807;SDS011;26523;52.504;13.498;2023-02-01T00:58:14;5.93;;;1.35;;
40807;SDS011;26523;52.504;13.498;2023-02-01T01:00:39;6.60;;;1.02;;
40807;SDS011;26523;52.504;13.498;2023-02-01T01:03:06;15.02;;;1.25;;
40807;SDS011;26523;52.504;13.498;2023-02-01T01:05:45;2.00;;;1.00;;
40807;SDS011;26523;52.504;13.498;2023-02-01T01:08:17;8.18;;;1.40;;
40807;SDS011;26523;52.504;13.498;2023-02-01T01:10:43;7.55;;;2.53;;
40807;SDS011;26523;52.504;13.498;2023-02-01T01:13:09;11.55;;;2.33;;
40807;SDS011;26523;52.504;13.498;2023-02-01T01:15:38;9.65;;;1.75;;
40807;SDS011;26523;52.504;13.498;2023-02-01T01:18:04;5.00;;;1.52;;
40807;SDS011;26523;52.504;13.498;2023-02-01T01:20:31;10.00;;;1.42;;
40807;SDS011;26523;52.504;13.498;2023-02-01T01:22:59;5.03;;;1.20;;
40807;SDS011;26523;52.504;13.498;2023-02-01T01:25:25;3.90;;;1.05;;
40807;SDS011;26523;52.504;13.498;2023-02-01T01:27:50;4.68;;;1.38;;
40807;SDS011;26523;52.504;13.498;2023-02-01T01:30:16;5.38;;;1.55;;
40807;SDS011;26523;52.504;13.498;2023-02-01T01:32:42;4.82;;;1.65;;
40807;SDS011;26523;52.504;13.498;2023-02-01T01:35:08;8.77;;;0.93;;
40807;SDS011;26523;52.504;13.498;2023-02-01T01:37:34;6.97;;;1.33;;
40807;SDS011;26523;52.504;13.498;2023-02-01T01:40:01;9.18;;;1.60;;
40807;SDS011;26523;52.504;13.498;2023-02-01T01:42:28;3.08;;;1.10;;
40807;SDS011;26523;52.504;13.498;2023-02-01T01:47:26;10.43;;;1.35;;
40807;SDS011;26523;52.504;13.498;2023-02-01T01:50:01;7.32;;;1.13;;
40807;SDS011;26523;52.504;13.498;2023-02-01T01:52:29;6.13;;;1.40;;
40807;SDS011;26523;52.504;13.498;2023-02-01T01:54:54;6.50;;;1.05;;
40807;SDS011;26523;52.504;13.498;2023-02-01T01:57:23;6.68;;;2.13;;
40807;SDS011;26523;52.504;13.498;2023-02-01T01:59:58;16.33;;;1.50;;
40807;SDS011;26523;52.504;13.498;2023-02-01T02:02:29;11.82;;;1.58;;
40807;SDS011;26523;52.504;13.498;2023-02-01T02:04:55;10.13;;;2.00;;
40807;SDS011;26523;52.504;13.498;2023-02-01T02:07:22;6.28;;;1.33;;
40807;SDS011;26523;52.504;13.498;2023-02-01T02:09:52;9.23;;;1.17;;
40807;SDS011;26523;52.504;13.498;2023-02-01T02:12:18;18.27;;;1.48;;
40807;SDS011;26523;52.504;13.498;2023-02-01T02:14:43;7.30;;;1.08;;
40807;SDS011;26523;52.504;13.498;2023-02-01T02:17:16;4.35;;;1.10;;
40807;SDS011;26523;52.504;13.498;2023-02-01T02:34:09;8.07;;;1.02;;
40807;SDS011;26523;52.504;13.498;2023-02-01T02:45:28;8.05;;;1.45;;
40807;SDS011;26523;52.504;13.498;2023-02-01T02:48:36;9.73;;;1.30;;
40807;SDS011;26523;52.504;13.498;2023-02-01T02:51:14;8.40;;;1.33;;
40807;SDS011;26523;52.504;13.498;2023-02-01T02:54:20;5.80;;;1.00;;
40807;SDS011;26523;52.504;13.498;2023-02-01T02:57:09;10.52;;;1.27;;
40807;SDS011;26523;52.504;13.498;2023-02-01T02:59:57;14.70;;;1.90;;
40807;SDS011;26523;52.504;13.498;2023-02-01T03:02:44;8.48;;;1.25;;
40807;SDS011;26523;52.504;13.498;2023-02-01T03:05:34;20.75;;;2.85;;
40807;SDS011;26523;52.504;13.498;2023-02-01T03:08:14;8.07;;;1.30;;
40807;SDS011;26523;52.504;13.498;2023-02-01T03:10:51;8.82;;;1.88;;
40807;SDS011;26523;52.504;13.498;2023-02-01T03:16:23;7.45;;;1.65;;
40807;SDS011;26523;52.504;13.498;2023-02-01T03:21:24;7.18;;;1.52;;
40807;SDS011;26523;52.504;13.498;2023-02-01T03:23:56;17.05;;;1.83;;
40807;SDS011;26523;52.504;13.498;2023-02-01T03:26:28;10.65;;;1.88;;
40807;SDS011;26523;52.504;13.498;2023-02-01T03:28:56;7.63;;;1.55;;
40807;SDS011;26523;52.504;13.498;2023-02-01T03:31:27;8.95;;;2.00;;
40807;SDS011;26523;52.504;13.498;2023-02-01T03:33:53;6.95;;;1.58;;
40807;SDS011;26523;52.504;13.498;2023-02-01T03:36:27;7.72;;;1.55;;
40807;SDS011;26523;52.504;13.498;2023-02-01T03:39:14;3.85;;;0.77;;
40807;SDS011;26523;52.504;13.498;2023-02-01T03:41:55;9.65;;;2.13;;
40807;SDS011;26523;52.504;13.498;2023-02-01T03:47:27;9.05;;;2.03;;
40807;SDS011;26523;52.504;13.498;2023-02-01T03:50:03;14.45;;;1.77;;
40807;SDS011;26523;52.504;13.498;2023-02-01T03:52:39;2.50;;;0.93;;
40807;SDS011;26523;52.504;13.498;2023-02-01T03:55:20;10.13;;;1.85;;
40807;SDS011;26523;52.504;13.498;2023-02-01T03:57:52;8.98;;;1.30;;
40807;SDS011;26523;52.504;13.498;2023-02-01T04:00:24;4.68;;;1.70;;
40807;SDS011;26523;52.504;13.498;2023-02-01T04:02:51;5.00;;;1.25;;
40807;SDS011;26523;52.504;13.498;2023-02-01T04:05:17;11.25;;;1.55;;
40807;SDS011;26523;52.504;13.498;2023-02-01T04:07:43;6.28;;;1.38;;
40807;SDS011;26523;52.504;13.498;2023-02-01T04:10:09;11.90;;;1.80;;
40807;SDS011;26523;52.504;13.498;2023-02-01T04:12:36;4.40;;;1.30;;
40807;SDS011;26523;52.504;13.498;2023-02-01T04:15:02;10.77;;;1.80;;
40807;SDS011;26523;52.504;13.498;2023-02-01T04:17:28;11.15;;;1.42;;
40807;SDS011;26523;52.504;13.498;2023-02-01T04:19:54;9.77;;;1.40;;
40807;SDS011;26523;52.504;13.498;2023-02-01T04:22:20;10.32;;;1.33;;
40807;SDS011;26523;52.504;13.498;2023-02-01T04:24:45;5.55;;;1.83;;
40807;SDS011;26523;52.504;13.498;2023-02-01T04:27:11;7.82;;;2.35;;
40807;SDS011;26523;52.504;13.498;2023-02-01T04:29:37;6.00;;;2.35;;
40807;SDS011;26523;52.504;13.498;2023-02-01T04:32:04;8.23;;;1.02;;
40807;SDS011;26523;52.504;13.498;2023-02-01T04:34:30;6.65;;;1.92;;
40807;SDS011;26523;52.504;13.498;2023-02-01T04:36:56;12.68;;;1.85;;
40807;SDS011;26523;52.504;13.498;2023-02-01T04:39:21;2.80;;;0.70;;
40807;SDS011;26523;52.504;13.498;2023-02-01T04:41:47;6.10;;;2.05;;
40807;SDS011;26523;52.504;13.498;2023-02-01T04:44:13;10.13;;;1.50;;
40807;SDS011;26523;52.504;13.498;2023-02-01T04:46:44;11.57;;;1.52;;
40807;SDS011;26523;52.504;13.498;2023-02-01T04:49:10;6.30;;;1.63;;
40807;SDS011;26523;52.504;13.498;2023-02-01T04:51:37;6.45;;;0.85;;
40807;SDS011;26523;52.504;13.498;2023-02-01T04:54:03;8.45;;;1.17;;
40807;SDS011;26523;52.504;13.498;2023-02-01T04:56:28;7.63;;;1.83;;
40807;SDS011;26523;52.504;13.498;2023-02-01T04:58:54;10.13;;;1.55;;
40807;SDS011;26523;52.504;13.498;2023-02-01T05:01:21;8.60;;;1.52;;
40807;SDS011;26523;52.504;13.498;2023-02-01T05:03:47;8.48;;;2.17;;
40807;SDS011;26523;52.504;13.498;2023-02-01T05:06:13;6.03;;;1.00;;
40807;SDS011;26523;52.504;13.498;2023-02-01T05:08:39;11.10;;;1.55;;
40807;SDS011;26523;52.504;13.498;2023-02-01T05:11:04;16.05;;;1.50;;
40807;SDS011;26523;52.504;13.498;2023-02-01T05:13:30;14.32;;;1.60;;
40807;SDS011;26523;52.504;13.498;2023-02-01T05:16:15;4.32;;;1.33;;
40807;SDS011;26523;52.504;13.498;2023-02-01T05:18:41;9.05;;;1.27;;
40807;SDS011;26523;52.504;13.498;2023-02-01T05:21:07;10.80;;;1.42;;
40807;SDS011;26523;52.504;13.498;2023-02-01T05:23:33;6.32;;;1.30;;
40807;SDS011;26523;52.504;13.498;2023-02-01T05:26:18;7.05;;;1.75;;
40807;SDS011;26523;52.504;13.498;2023-02-01T05:28:44;10.20;;;2.08;;
40807;SDS011;26523;52.504;13.498;2023-02-01T05:31:10;1.70;;;1.00;;
40807;SDS011;26523;52.504;13.498;2023-02-01T05:33:36;8.35;;;1.48;;
40807;SDS011;26523;52.504;13.498;2023-02-01T05:36:02;19.23;;;1.55;;
40807;SDS011;26523;52.504;13.498;2023-02-01T05:38:27;3.47;;;0.82;;
40807;SDS011;26523;52.504;13.498;2023-02-01T05:40:54;3.70;;;1.30;;
40807;SDS011;26523;52.504;13.498;2023-02-01T05:43:20;16.98;;;2.05;;
40807;SDS011;26523;52.504;13.498;2023-02-01T05:45:46;6.20;;;2.25;;
40807;SDS011;26523;52.504;13.498;2023-02-01T05:48:12;4.30;;;1.50;;
40807;SDS011;26523;52.504;13.498;2023-02-01T05:50:38;7.80;;;1.67;;
40807;SDS011;26523;52.504;13.498;2023-02-01T05:53:03;10.20;;;2.17;;
40807;SDS011;26523;52.504;13.498;2023-02-01T05:55:29;7.90;;;1.77;;
40807;SDS011;26523;52.504;13.498;2023-02-01T05:57:55;16.05;;;2.28;;
40807;SDS011;26523;52.504;13.498;2023-02-01T06:00:21;13.45;;;1.75;;
40807;SDS011;26523;52.504;13.498;2023-02-01T06:02:47;12.35;;;2.65;;
40807;SDS011;26523;52.504;13.498;2023-02-01T06:05:12;6.25;;;1.77;;
40807;SDS011;26523;52.504;13.498;2023-02-01T06:07:38;8.38;;;1.40;;
40807;SDS011;26523;52.504;13.498;2023-02-01T06:10:04;21.38;;;2.10;;
40807;SDS011;26523;52.504;13.498;2023-02-01T06:12:30;12.57;;;1.95;;
40807;SDS011;26523;52.504;13.498;2023-02-01T06:14:55;11.02;;;2.03;;
40807;SDS011;26523;52.504;13.498;2023-02-01T06:17:21;11.98;;;2.83;;
40807;SDS011;26523;52.504;13.498;2023-02-01T06:19:47;7.93;;;1.55;;
40807;SDS011;26523;52.504;13.498;2023-02-01T06:22:13;13.68;;;1.88;;
40807;SDS011;26523;52.504;13.498;2023-02-01T06:24:39;3.38;;;1.48;;
40807;SDS011;26523;52.504;13.498;2023-02-01T06:27:05;13.07;;;1.33;;
40807;SDS011;26523;52.504;13.498;2023-02-01T06:29:32;5.15;;;2.15;;
40807;SDS011;26523;52.504;13.498;2023-02-01T06:31:58;10.27;;;2.03;;
40807;SDS011;26523;52.504;13.498;2023-02-01T06:34:23;10.57;;;1.67;;
40807;SDS011;26523;52.504;13.498;2023-02-01T06:36:49;11.23;;;2.08;;
40807;SDS011;26523;52.504;13.498;2023-02-01T06:39:15;12.13;;;2.20;;
40807;SDS011;26523;52.504;13.498;2023-02-01T06:41:41;35.72;;;4.03;;
40807;SDS011;26523;52.504;13.498;2023-02-01T06:44:08;9.73;;;2.72;;
40807;SDS011;26523;52.504;13.498;2023-02-01T06:46:33;25.75;;;3.08;;
40807;SDS011;26523;52.504;13.498;2023-02-01T06:48:59;18.80;;;2.88;;
40807;SDS011;26523;52.504;13.498;2023-02-01T06:51:25;15.32;;;2.50;;
40807;SDS011;26523;52.504;13.498;2023-02-01T06:53:53;8.85;;;2.47;;
40807;SDS011;26523;52.504;13.498;2023-02-01T06:56:19;7.03;;;1.52;;
40807;SDS011;26523;52.504;13.498;2023-02-01T06:58:45;14.32;;;2.03;;
40807;SDS011;26523;52.504;13.498;2023-02-01T07:01:11;12.02;;;2.58;;
40807;SDS011;26523;52.504;13.498;2023-02-01T07:03:37;11.90;;;1.80;;
40807;SDS011;26523;52.504;13.498;2023-02-01T07:06:03;4.93;;;1.67;;
40807;SDS011;26523;52.504;13.498;2023-02-01T07:08:30;10.38;;;2.55;;
40807;SDS011;26523;52.504;13.498;2023-02-01T07:11:01;9.85;;;2.03;;
40807;SDS011;26523;52.504;13.498;2023-02-01T07:13:27;12.43;;;2.15;;
40807;SDS011;26523;52.504;13.498;2023-02-01T07:15:53;17.13;;;2.15;;
40807;SDS011;26523;52.504;13.498;2023-02-01T07:18:19;6.50;;;2.10;;
40807;SDS011;26523;52.504;13.498;2023-02-01T07:20:49;4.75;;;1.52;;
40807;SDS011;26523;52.504;13.498;2023-02-01T07:23:15;9.68;;;2.13;;
40807;SDS011;26523;52.504;13.498;2023-02-01T07:25:40;8.00;;;2.25;;
40807;SDS011;26523;52.504;13.498;2023-02-01T07:28:06;7.53;;;2.03;;
40807;SDS011;26523;52.504;13.498;2023-02-01T07:30:32;18.77;;;3.35;;
40807;SDS011;26523;52.504;13.498;2023-02-01T07:32:57;6.07;;;1.65;;
40807;SDS011;26523;52.504;13.498;2023-02-01T07:35:26;13.43;;;1.83;;
40807;SDS011;26523;52.504;13.498;2023-02-01T07:37:52;8.35;;;1.38;;
40807;SDS011;26523;52.504;13.498;2023-02-01T07:40:18;16.33;;;1.92;;
40807;SDS011;26523;52.504;13.498;2023-02-01T07:42:48;13.07;;;2.38;;
40807;SDS011;26523;52.504;13.498;2023-02-01T07:45:14;16.00;;;1.75;;
40807;SDS011;26523;52.504;13.498;2023-02-01T07:47:41;8.30;;;1.88;;
40807;SDS011;26523;52.504;13.498;2023-02-01T07:50:06;8.20;;;2.15;;
40807;SDS011;26523;52.504;13.498;2023-02-01T07:52:32;9.38;;;2.05;;
40807;SDS011;26523;52.504;13.498;2023-02-01T07:54:58;5.55;;;2.35;;
40807;SDS011;26523;52.504;13.498;2023-02-01T07:57:24;8.23;;;2.00;;
40807;SDS011;26523;52.504;13.498;2023-02-01T07:59:49;8.27;;;1.95;;
40807;SDS011;26523;52.504;13.498;2023-02-01T08:02:34;2.75;;;0.85;;
40807;SDS011;26523;52.504;13.498;2023-02-01T08:04:59;8.07;;;1.85;;
40807;SDS011;26523;52.504;13.498;2023-02-01T08:07:25;4.88;;;1.70;;
40807;SDS011;26523;52.504;13.498;2023-02-01T08:09:51;3.15;;;1.17;;
40807;SDS011;26523;52.504;13.498;2023-02-01T08:12:16;2.70;;;1.27;;
40807;SDS011;26523;52.504;13.498;2023-02-01T08:14:42;7.88;;;1.20;;
40807;SDS011;26523;52.504;13.498;2023-02-01T08:17:08;5.70;;;1.48;;
40807;SDS011;26523;52.504;13.498;2023-02-01T08:19:33;12.05;;;1.83;;
40807;SDS011;26523;52.504;13.498;2023-02-01T08:21:59;5.97;;;2.03;;
40807;SDS011;26523;52.504;13.498;2023-02-01T08:24:27;5.68;;;1.65;;
40807;SDS011;26523;52.504;13.498;2023-02-01T08:26:52;2.38;;;1.02;;
40807;SDS011;26523;52.504;13.498;2023-02-01T08:29:18;8.85;;;1.58;;
40807;SDS011;26523;52.504;13.498;2023-02-01T08:31:44;2.83;;;1.10;;
40807;SDS011;26523;52.504;13.498;2023-02-01T08:34:09;6.93;;;1.02;;
40807;SDS011;26523;52.504;13.498;2023-02-01T08:36:36;7.35;;;1.17;;
40807;SDS011;26523;52.504;13.498;2023-02-01T08:39:03;8.40;;;1.38;;
40807;SDS011;26523;52.504;13.498;2023-02-01T08:41:33;6.28;;;2.05;;
40807;SDS011;26523;52.504;13.498;2023-02-01T08:43:59;4.18;;;1.48;;
40807;SDS011;26523;52.504;13.498;2023-02-01T08:46:25;4.55;;;1.40;;
40807;SDS011;26523;52.504;13.498;2023-02-01T08:48:50;7.80;;;1.55;;
40807;SDS011;26523;52.504;13.498;2023-02-01T08:51:17;15.50;;;2.33;;
40807;SDS011;26523;52.504;13.498;2023-02-01T08:53:45;8.25;;;1.52;;
40807;SDS011;26523;52.504;13.498;2023-02-01T08:56:12;7.80;;;1.98;;
40807;SDS011;26523;52.504;13.498;2023-02-01T08:58:39;3.60;;;1.73;;
40807;SDS011;26523;52.504;13.498;2023-02-01T09:01:15;10.52;;;1.67;;
40807;SDS011;26523;52.504;13.498;2023-02-01T09:03:42;5.25;;;1.35;;
40807;SDS011;26523;52.504;13.498;2023-02-01T09:06:09;5.32;;;1.67;;
40807;SDS011;26523;52.504;13.498;2023-02-01T09:08:37;3.25;;;1.25;;
40807;SDS011;26523;52.504;13.498;2023-02-01T09:11:05;3.70;;;1.52;;
40807;SDS011;26523;52.504;13.498;2023-02-01T09:13:32;8.65;;;1.98;;
40807;SDS011;26523;52.504;13.498;2023-02-01T09:15:59;5.97;;;1.88;;
40807;SDS011;26523;52.504;13.498;2023-02-01T09:18:25;2.60;;;0.77;;
40807;SDS011;26523;52.504;13.498;2023-02-01T09:20:50;3.17;;;1.02;;
40807;SDS011;26523;52.504;13.498;2023-02-01T09:23:16;5.18;;;0.80;;
40807;SDS011;26523;52.504;13.498;2023-02-01T09:25:42;1.17;;;0.60;;
40807;SDS011;26523;52.504;13.498;2023-02-01T09:28:08;1.63;;;1.08;;
40807;SDS011;26523;52.504;13.498;2023-02-01T09:30:35;5.38;;;1.75;;
40807;SDS011;26523;52.504;13.498;2023-02-01T09:33:02;2.38;;;1.10;;
40807;SDS011;26523;52.504;13.498;2023-02-01T09:35:28;1.98;;;0.82;;
40807;SDS011;26523;52.504;13.498;2023-02-01T09:37:54;4.53;;;0.85;;
40807;SDS011;26523;52.504;13.498;2023-02-01T09:40:20;0.85;;;0.63;;
40807;SDS011;26523;52.504;13.498;2023-02-01T09:45:26;2.38;;;1.05;;
40807;SDS011;26523;52.504;13.498;2023-02-01T09:47:59;5.13;;;1.20;;
40807;SDS011;26523;52.504;13.498;2023-02-01T09:50:38;3.72;;;0.68;;
40807;SDS011;26523;52.504;13.498;2023-02-01T09:53:15;2.88;;;0.88;;
40807;SDS011;26523;52.504;13.498;2023-02-01T09:56:12;3.40;;;0.40;;
40807;SDS011;26523;52.504;13.498;2023-02-01T09:59:08;9.13;;;0.80;;
40807;SDS011;26523;52.504;13.498;2023-02-01T10:01:38;1.05;;;0.55;;
40807;SDS011;26523;52.504;13.498;2023-02-01T10:04:05;1.42;;;0.77;;
40807;SDS011;26523;52.504;13.498;2023-02-01T10:09:58;2.65;;;0.57;;
40807;SDS011;26523;52.504;13.498;2023-02-01T10:12:48;1.77;;;0.75;;
40807;SDS011;26523;52.504;13.498;2023-02-01T10:15:50;1.23;;;0.30;;
40807;SDS011;26523;52.504;13.498;2023-02-01T10:24:05;1.52;;;0.90;;
40807;SDS011;26523;52.504;13.498;2023-02-01T10:26:42;1.25;;;1.15;;
40807;SDS011;26523;52.504;13.498;2023-02-01T10:29:18;5.22;;;0.75;;
40807;SDS011;26523;52.504;13.498;2023-02-01T10:31:45;0.77;;;0.60;;
40807;SDS011;26523;52.504;13.498;2023-02-01T10:39:57;4.30;;;0.45;;
40807;SDS011;26523;52.504;13.498;2023-02-01T10:42:36;0.28;;;0.25;;
40807;SDS011;26523;52.504;13.498;2023-02-01T10:45:02;5.88;;;1.73;;
40807;SDS011;26523;52.504;13.498;2023-02-01T10:47:29;3.00;;;0.70;;
40807;SDS011;26523;52.504;13.498;2023-02-01T10:57:57;3.38;;;0.90;;
40807;SDS011;26523;52.504;13.498;2023-02-01T11:00:24;2.15;;;0.73;;
40807;SDS011;26523;52.504;13.498;2023-02-01T11:02:50;1.35;;;0.55;;
40807;SDS011;26523;52.504;13.498;2023-02-01T11:05:17;1.58;;;0.52;;
40807;SDS011;26523;52.504;13.498;2023-02-01T11:07:50;4.78;;;1.23;;
40807;SDS011;26523;52.504;13.498;2023-02-01T11:10:35;9.57;;;0.68;;
40807;SDS011;26523;52.504;13.498;2023-02-01T11:13:04;0.93;;;0.60;;
40807;SDS011;26523;52.504;13.498;2023-02-01T11:15:30;5.45;;;1.05;;
40807;SDS011;26523;52.504;13.498;2023-02-01T11:17:56;0.93;;;0.60;;
40807;SDS011;26523;52.504;13.498;2023-02-01T11:20:40;7.40;;;0.90;;
40807;SDS011;26523;52.504;13.498;2023-02-01T11:23:13;3.83;;;0.80;;
40807;SDS011;26523;52.504;13.498;2023-02-01T11:25:52;3.65;;;0.80;;
40807;SDS011;26523;52.504;13.498;2023-02-01T11:28:22;8.52;;;0.85;;
40807;SDS011;26523;52.504;13.498;2023-02-01T11:30:53;4.93;;;0.65;;
40807;SDS011;26523;52.504;13.498;2023-02-01T11:33:25;11.38;;;2.28;;
40807;SDS011;26523;52.504;13.498;2023-02-01T11:35:59;1.77;;;0.98;;
40807;SDS011;26523;52.504;13.498;2023-02-01T11:38:32;4.40;;;0.90;;
40807;SDS011;26523;52.504;13.498;2023-02-01T11:44:16;5.28;;;1.38;;
40807;SDS011;26523;52.504;13.498;2023-02-01T11:46:47;7.75;;;1.20;;
40807;SDS011;26523;52.504;13.498;2023-02-01T11:49:20;7.30;;;1.35;;
40807;SDS011;26523;52.504;13.498;2023-02-01T11:52:23;14.32;;;2.30;;
40807;SDS011;26523;52.504;13.498;2023-02-01T11:57:39;1.02;;;0.70;;
40807;SDS011;26523;52.504;13.498;2023-02-01T12:05:38;7.72;;;1.35;;
40807;SDS011;26523;52.504;13.498;2023-02-01T12:08:10;4.38;;;1.42;;
40807;SDS011;26523;52.504;13.498;2023-02-01T12:24:49;2.47;;;0.93;;
40807;SDS011;26523;52.504;13.498;2023-02-01T12:27:50;3.15;;;1.40;;
40807;SDS011;26523;52.504;13.498;2023-02-01T12:30:54;4.05;;;0.80;;
40807;SDS011;26523;52.504;13.498;2023-02-01T12:36:03;4.95;;;1.27;;
40807;SDS011;26523;52.504;13.498;2023-02-01T12:38:48;8.27;;;1.77;;
40807;SDS011;26523;52.504;13.498;2023-02-01T12:41:38;4.63;;;0.87;;
40807;SDS011;26523;52.504;13.498;2023-02-01T12:46:47;3.33;;;1.00;;
40807;SDS011;26523;52.504;13.498;2023-02-01T12:52:07;3.95;;;1.00;;
40807;SDS011;26523;52.504;13.498;2023-02-01T12:57:15;3.75;;;1.05;;
40807;SDS011;26523;52.504;13.498;2023-02-01T12:59:59;3.92;;;1.30;;
40807;SDS011;26523;52.504;13.498;2023-02-01T13:05:18;9.38;;;1.10;;
40807;SDS011;26523;52.504;13.498;2023-02-01T13:07:48;8.30;;;1.30;;
40807;SDS011;26523;52.504;13.498;2023-02-01T13:12:56;6.40;;;1.42;;
40807;SDS011;26523;52.504;13.498;2023-02-01T13:15:46;3.00;;;1.10;;
40807;SDS011;26523;52.504;13.498;2023-02-01T13:18:22;3.25;;;0.63;;
40807;SDS011;26523;52.504;13.498;2023-02-01T13:21:05;8.68;;;1.42;;
40807;SDS011;26523;52.504;13.498;2023-02-01T13:23:39;2.60;;;0.98;;
40807;SDS011;26523;52.504;13.498;2023-02-01T13:26:06;6.40;;;1.08;;
40807;SDS011;26523;52.504;13.498;2023-02-01T13:28:51;7.10;;;1.55;;
40807;SDS011;26523;52.504;13.498;2023-02-01T13:42:48;2.83;;;0.80;;
40807;SDS011;26523;52.504;13.498;2023-02-01T13:45:20;1.73;;;0.65;;
40807;SDS011;26523;52.504;13.498;2023-02-01T13:48:00;5.82;;;1.50;;
40807;SDS011;26523;52.504;13.498;2023-02-01T13:50:30;7.10;;;1.55;;
40807;SDS011;26523;52.504;13.498;2023-02-01T13:53:04;5.63;;;1.87;;
40807;SDS011;26523;52.504;13.498;2023-02-01T13:55:34;10.90;;;1.98;;
40807;SDS011;26523;52.504;13.498;2023-02-01T13:58:10;2.58;;;0.82;;
40807;SDS011;26523;52.504;13.498;2023-02-01T14:00:44;5.95;;;1.10;;
40807;SDS011;26523;52.504;13.498;2023-02-01T14:03:12;8.98;;;1.33;;
40807;SDS011;26523;52.504;13.498;2023-02-01T14:23:40;5.05;;;1.50;;
40807;SDS011;26523;52.504;13.498;2023-02-01T14:26:12;10.50;;;1.25;;
40807;SDS011;26523;52.504;13.498;2023-02-01T14:28:42;11.45;;;1.35;;
40807;SDS011;26523;52.504;13.498;2023-02-01T14:31:16;2.80;;;1.20;;
40807;SDS011;26523;52.504;13.498;2023-02-01T14:33:57;7.35;;;1.67;;
40807;SDS011;26523;52.504;13.498;2023-02-01T14:36:25;5.22;;;1.35;;
40807;SDS011;26523;52.504;13.498;2023-02-01T14:39:30;7.72;;;2.25;;
40807;SDS011;26523;52.504;13.498;2023-02-01T14:42:14;1.67;;;0.82;;
40807;SDS011;26523;52.504;13.498;2023-02-01T14:50:23;15.50;;;2.65;;
40807;SDS011;26523;52.504;13.498;2023-02-01T14:58:05;2.70;;;0.73;;
40807;SDS011;26523;52.504;13.498;2023-02-01T15:00:46;4.50;;;0.88;;
40807;SDS011;26523;52.504;13.498;2023-02-01T15:03:28;9.02;;;1.20;;
40807;SDS011;26523;52.504;13.498;2023-02-01T15:09:20;9.43;;;1.63;;
40807;SDS011;26523;52.504;13.498;2023-02-01T15:12:09;4.53;;;1.00;;
40807;SDS011;26523;52.504;13.498;2023-02-01T15:17:55;2.72;;;0.90;;
40807;SDS011;26523;52.504;13.498;2023-02-01T15:20:24;10.70;;;1.10;;
40807;SDS011;26523;52.504;13.498;2023-02-01T15:23:25;2.88;;;1.25;;
40807;SDS011;26523;52.504;13.498;2023-02-01T15:25:45;1.33;;;0.88;;
40807;SDS011;26523;52.504;13.498;2023-02-01T15:28:14;2.25;;;0.63;;
40807;SDS011;26523;52.504;13.498;2023-02-01T15:30:51;0.82;;;0.63;;
40807;SDS011;26523;52.504;13.498;2023-02-01T15:33:22;2.10;;;0.70;;
40807;SDS011;26523;52.504;13.498;2023-02-01T15:35:52;1.40;;;0.90;;
40807;SDS011;26523;52.504;13.498;2023-02-01T15:43:21;4.82;;;1.10;;
40807;SDS011;26523;52.504;13.498;2023-02-01T15:45:48;7.25;;;0.70;;
40807;SDS011;26523;52.504;13.498;2023-02-01T15:48:21;8.10;;;1.23;;
40807;SDS011;26523;52.504;13.498;2023-02-01T15:50:50;1.27;;;0.75;;
40807;SDS011;26523;52.504;13.498;2023-02-01T15:53:20;1.98;;;1.63;;
40807;SDS011;26523;52.504;13.498;2023-02-01T15:55:51;2.05;;;0.90;;
40807;SDS011;26523;52.504;13.498;2023-02-01T15:58:20;2.92;;;0.75;;
40807;SDS011;26523;52.504;13.498;2023-02-01T16:00:49;0.95;;;0.40;;
40807;SDS011;26523;52.504;13.498;2023-02-01T16:06:05;0.57;;;0.40;;
40807;SDS011;26523;52.504;13.498;2023-02-01T16:08:33;3.72;;;0.57;;
40807;SDS011;26523;52.504;13.498;2023-02-01T16:13:33;0.47;;;0.45;;
40807;SDS011;26523;52.504;13.498;2023-02-01T16:16:00;1.20;;;0.60;;
40807;SDS011;26523;52.504;13.498;2023-02-01T16:18:25;1.58;;;0.38;;
40807;SDS011;26523;52.504;13.498;2023-02-01T16:20:51;0.40;;;0.30;;
40807;SDS011;26523;52.504;13.498;2023-02-01T16:23:17;0.88;;;0.50;;
40807;SDS011;26523;52.504;13.498;2023-02-01T16:25:45;1.35;;;0.52;;
40807;SDS011;26523;52.504;13.498;2023-02-01T16:28:11;0.25;;;0.20;;
40807;SDS011;26523;52.504;13.498;2023-02-01T16:30:37;1.08;;;0.43;;
40807;SDS011;26523;52.504;13.498;2023-02-01T16:33:03;1.48;;;0.45;;
40807;SDS011;26523;52.504;13.498;2023-02-01T16:35:37;0.75;;;0.43;;
40807;SDS011;26523;52.504;13.498;2023-02-01T16:38:13;0.30;;;0.30;;
40807;SDS011;26523;52.504;13.498;2023-02-01T16:40:43;0.20;;;0.20;;
40807;SDS011;26523;52.504;13.498;2023-02-01T16:45:43;2.63;;;0.20;;
40807;SDS011;26523;52.504;13.498;2023-02-01T16:50:50;2.20;;;0.40;;
40807;SDS011;26523;52.504;13.498;2023-02-01T16:53:21;1.38;;;0.40;;
40807;SDS011;26523;52.504;13.498;2023-02-01T16:55:48;0.77;;;0.57;;
40807;SDS011;26523;52.504;13.498;2023-02-01T16:58:15;0.90;;;0.40;;
40807;SDS011;26523;52.504;13.498;2023-02-01T17:00:44;1.15;;;0.30;;
40807;SDS011;26523;52.504;13.498;2023-02-01T17:03:11;2.80;;;0.80;;
40807;SDS011;26523;52.504;13.498;2023-02-01T17:05:42;1.10;;;0.90;;
40807;SDS011;26523;52.504;13.498;2023-02-01T17:08:13;0.73;;;0.63;;
40807;SDS011;26523;52.504;13.498;2023-02-01T17:10:43;1.95;;;0.57;;
40807;SDS011;26523;52.504;13.498;2023-02-01T17:13:13;0.50;;;0.40;;
40807;SDS011;26523;52.504;13.498;2023-02-01T17:15:40;2.53;;;0.32;;
40807;SDS011;26523;52.504;13.498;2023-02-01T17:18:15;0.60;;;0.40;;
40807;SDS011;26523;52.504;13.498;2023-02-01T17:20:43;4.20;;;0.25;;
40807;SDS011;26523;52.504;13.498;2023-02-01T17:23:11;0.95;;;0.52;;
40807;SDS011;26523;52.504;13.498;2023-02-01T17:25:38;0.60;;;0.38;;
40807;SDS011;26523;52.504;13.498;2023-02-01T17:28:04;0.52;;;0.35;;
40807;SDS011;26523;52.504;13.498;2023-02-01T17:30:30;1.00;;;0.25;;
40807;SDS011;26523;52.504;13.498;2023-02-01T17:32:56;0.95;;;0.50;;